createdAt,value
2018-03-28T00:01:57.404Z,55.80
2018-03-28T00:04:23.654Z,41.90
2018-03-28T00:06:49.884Z,52.73
2018-03-28T00:09:16.148Z,41.90
2018-03-28T00:11:42.424Z,44.27
2018-03-28T00:14:08.607Z,44.97
2018-03-28T00:16:35.791Z,43.87
2018-03-28T00:19:02.014Z,43.80
2018-03-28T00:21:28.256Z,49.13
2018-03-28T00:23:55.590Z,43.03
2018-03-28T00:26:21.997Z,48.20
2018-03-28T00:28:48.221Z,46.87
2018-03-28T00:31:14.502Z,42.23
2018-03-28T00:33:40.715Z,38.60
2018-03-28T00:36:06.972Z,39.23
2018-03-28T00:38:34.932Z,42.93
2018-03-28T00:41:01.114Z,45.13
2018-03-28T00:43:28.020Z,37.93
2018-03-28T00:45:54.193Z,36.63
2018-03-28T00:48:21.122Z,44.10
2018-03-28T00:50:47.294Z,40.07
2018-03-28T00:53:14.227Z,37.00
2018-03-28T00:55:40.473Z,40.90
2018-03-28T00:58:06.752Z,42.00
2018-03-28T01:00:32.973Z,38.47
2018-03-28T01:02:59.217Z,41.43
2018-03-28T01:05:26.178Z,37.53
2018-03-28T01:07:54.247Z,41.80
2018-03-28T01:10:20.490Z,42.03
2018-03-28T01:12:46.770Z,43.93
2018-03-28T01:15:12.966Z,47.47
2018-03-28T01:17:39.144Z,46.03
2018-03-28T01:20:06.091Z,40.73
2018-03-28T01:22:34.341Z,37.03
2018-03-28T01:25:00.550Z,42.53
2018-03-28T01:27:26.766Z,39.57
2018-03-28T01:29:52.986Z,39.40
2018-03-28T01:32:19.254Z,41.37
2018-03-28T01:34:45.469Z,38.50
2018-03-28T01:37:12.507Z,35.93
2018-03-28T01:39:47.476Z,42.77
2018-03-28T01:42:13.761Z,43.73
2018-03-28T01:44:39.985Z,44.03
2018-03-28T01:47:06.214Z,38.13
2018-03-28T01:49:33.981Z,39.87
2018-03-28T01:52:00.256Z,44.33
2018-03-28T01:54:28.573Z,39.47
2018-03-28T01:56:54.713Z,39.43
2018-03-28T01:59:22.772Z,42.73
2018-03-28T02:01:48.991Z,39.00
2018-03-28T02:04:16.656Z,38.17
2018-03-28T02:06:42.796Z,37.60
2018-03-28T02:09:10.936Z,37.03
2018-03-28T02:11:37.865Z,38.83
2018-03-28T02:14:04.112Z,40.30
2018-03-28T02:16:31.053Z,39.80
2018-03-28T02:18:57.325Z,43.07
2018-03-28T02:21:23.549Z,34.70
2018-03-28T02:23:49.805Z,37.73
2018-03-28T02:26:16.024Z,42.20
2018-03-28T02:28:42.282Z,38.43
2018-03-28T02:31:08.818Z,43.63
2018-03-28T02:33:35.055Z,40.00
2018-03-28T02:36:02.061Z,35.63
2018-03-28T02:38:28.252Z,35.03
2018-03-28T02:40:56.337Z,37.23
2018-03-28T02:43:22.504Z,41.27
2018-03-28T02:45:48.757Z,34.50
2018-03-28T02:48:15.693Z,32.63
2018-03-28T02:50:42.212Z,36.80
2018-03-28T02:53:08.380Z,35.17
2018-03-28T02:55:34.645Z,29.60
2018-03-28T02:58:00.852Z,31.30
2018-03-28T03:00:27.017Z,34.77
2018-03-28T03:02:53.240Z,30.70
2018-03-28T03:05:19.512Z,30.67
2018-03-28T03:07:46.445Z,31.13
2018-03-28T03:10:14.562Z,30.10
2018-03-28T03:12:40.777Z,28.97
2018-03-28T03:15:07.016Z,33.23
2018-03-28T03:17:33.181Z,38.80
2018-03-28T03:19:59.400Z,32.00
2018-03-28T03:22:25.664Z,33.53
2018-03-28T03:24:52.608Z,33.17
2018-03-28T03:27:19.594Z,26.60
2018-03-28T03:29:45.801Z,28.90
2018-03-28T03:32:12.077Z,28.73
2018-03-28T03:34:38.313Z,25.60
2018-03-28T03:37:04.613Z,34.83
2018-03-28T03:39:31.492Z,26.03
2018-03-28T03:41:57.759Z,28.13
2018-03-28T03:44:23.970Z,24.57
2018-03-28T03:46:52.365Z,30.40
2018-03-28T03:49:19.320Z,26.10
2018-03-28T03:51:46.761Z,27.90
2018-03-28T03:54:13.662Z,28.30
2018-03-28T03:56:41.907Z,35.67
2018-03-28T03:59:09.217Z,28.70
2018-03-28T04:01:37.128Z,27.23
2018-03-28T04:04:03.341Z,28.63
2018-03-28T04:06:29.592Z,32.50
2018-03-28T04:08:56.116Z,29.07
2018-03-28T04:11:22.273Z,29.83
2018-03-28T04:13:48.502Z,33.23
2018-03-28T04:16:14.676Z,29.37
2018-03-28T04:18:41.637Z,31.00
2018-03-28T04:21:08.676Z,28.70
2018-03-28T04:23:34.955Z,28.63
2018-03-28T04:26:01.160Z,26.83
2018-03-28T04:28:27.425Z,28.57
2018-03-28T04:30:54.913Z,34.50
2018-03-28T04:33:22.292Z,29.90
2018-03-28T04:36:03.438Z,33.53
2018-03-28T04:38:30.616Z,34.73
2018-03-28T04:40:56.844Z,30.80
2018-03-28T04:43:23.012Z,33.23
2018-03-28T04:45:49.213Z,28.73
2018-03-28T04:48:15.397Z,38.20
2018-03-28T04:50:42.425Z,32.10
2018-03-28T04:53:08.763Z,41.63
2018-03-28T04:55:35.021Z,39.33
2018-03-28T04:58:01.332Z,43.70
2018-03-28T05:00:28.341Z,34.20
2018-03-28T05:02:54.701Z,36.60
2018-03-28T05:05:23.080Z,38.07
2018-03-28T05:07:49.317Z,35.10
2018-03-28T05:10:15.622Z,32.50
2018-03-28T05:12:41.799Z,34.77
2018-03-28T05:15:08.056Z,36.53
2018-03-28T05:17:35.021Z,39.73
2018-03-28T05:20:01.302Z,35.40
2018-03-28T05:22:27.554Z,42.30
2018-03-28T05:24:53.909Z,43.37
2018-03-28T05:27:20.065Z,38.43
2018-03-28T05:29:47.019Z,38.83
2018-03-28T05:32:14.336Z,36.13
2018-03-28T05:34:40.553Z,38.43
2018-03-28T05:37:06.788Z,39.33
2018-03-28T05:39:33.041Z,40.77
2018-03-28T05:41:59.270Z,43.00
2018-03-28T05:44:26.217Z,41.43
2018-03-28T05:46:54.344Z,42.20
2018-03-28T05:49:20.537Z,39.80
2018-03-28T05:51:48.901Z,40.17
2018-03-28T05:54:15.793Z,46.70
2018-03-28T05:56:42.081Z,41.37
2018-03-28T05:59:09.020Z,46.03
2018-03-28T06:01:35.977Z,43.00
2018-03-28T06:04:02.939Z,47.07
2018-03-28T06:06:31.024Z,48.70
2018-03-28T06:08:57.248Z,42.90
2018-03-28T06:11:23.533Z,50.57
2018-03-28T06:13:50.440Z,42.90
2018-03-28T06:16:16.722Z,46.23
2018-03-28T06:18:44.058Z,48.87
2018-03-28T06:21:10.338Z,50.40
2018-03-28T06:23:36.545Z,48.63
2018-03-28T06:26:04.728Z,48.13
2018-03-28T06:28:30.860Z,49.33
2018-03-28T06:30:57.102Z,47.73
2018-03-28T06:33:25.554Z,49.30
2018-03-28T06:35:51.803Z,49.23
2018-03-28T06:38:18.021Z,53.93
2018-03-28T06:40:44.242Z,46.90
2018-03-28T06:43:10.525Z,53.40
2018-03-28T06:45:36.722Z,48.47
2018-03-28T06:48:02.999Z,57.17
2018-03-28T06:50:29.923Z,52.13
2018-03-28T06:52:56.189Z,47.97
2018-03-28T06:55:22.405Z,59.83
2018-03-28T06:57:49.397Z,46.00
2018-03-28T07:00:15.601Z,52.07
2018-03-28T07:02:41.760Z,53.43
2018-03-28T07:05:07.993Z,52.83
2018-03-28T07:07:34.308Z,53.90
2018-03-28T07:10:01.345Z,50.53
2018-03-28T07:12:27.585Z,47.33
2018-03-28T07:14:53.772Z,49.10
2018-03-28T07:17:20.741Z,53.57
2018-03-28T07:19:46.996Z,52.43
2018-03-28T07:22:13.226Z,49.70
2018-03-28T07:24:40.854Z,44.87
2018-03-28T07:27:07.051Z,47.07
2018-03-28T07:29:34.032Z,45.60
2018-03-28T07:32:00.246Z,53.57
2018-03-28T07:34:26.523Z,56.03
2018-03-28T07:36:52.733Z,48.67
2018-03-28T07:39:18.989Z,54.63
2018-03-28T07:41:45.220Z,55.20
2018-03-28T07:44:11.473Z,48.50
2018-03-28T07:46:38.417Z,51.73
2018-03-28T07:49:05.389Z,52.03
2018-03-28T07:51:31.666Z,48.67
2018-03-28T07:53:59.686Z,55.17
2018-03-28T07:56:25.873Z,50.23
2018-03-28T07:58:52.094Z,48.90
2018-03-28T08:01:19.524Z,49.73
2018-03-28T08:03:45.695Z,53.93
2018-03-28T08:06:13.070Z,45.50
2018-03-28T08:08:40.034Z,51.13
2018-03-28T08:11:06.297Z,49.77
2018-03-28T08:13:32.521Z,48.77
2018-03-28T08:15:58.776Z,49.50
2018-03-28T08:18:24.994Z,43.10
2018-03-28T08:20:51.253Z,46.80
2018-03-28T08:23:18.212Z,46.10
2018-03-28T08:25:46.072Z,52.90
2018-03-28T08:28:12.218Z,54.83
2018-03-28T08:30:41.564Z,45.13
2018-03-28T08:33:07.793Z,41.97
2018-03-28T08:35:34.058Z,44.83
2018-03-28T08:38:00.256Z,40.60
2018-03-28T08:40:26.561Z,41.93
2018-03-28T08:42:53.513Z,38.10
2018-03-28T08:45:19.722Z,37.73
2018-03-28T08:47:46.650Z,57.00
2018-03-28T08:50:12.843Z,43.00
2018-03-28T08:52:39.084Z,37.10
2018-03-28T08:55:06.028Z,40.20
2018-03-28T08:57:33.017Z,42.17
2018-03-28T08:59:59.242Z,42.27
2018-03-28T09:02:25.493Z,45.80
2018-03-28T09:04:51.707Z,43.70
2018-03-28T09:07:19.099Z,48.93
2018-03-28T09:09:45.305Z,42.23
2018-03-28T09:12:11.576Z,37.03
2018-03-28T09:14:38.499Z,52.90
2018-03-28T09:17:04.681Z,41.40
2018-03-28T09:19:30.889Z,42.73
2018-03-28T09:21:57.209Z,39.50
2018-03-28T09:24:23.376Z,40.77
2018-03-28T09:26:49.664Z,41.03
2018-03-28T09:29:16.593Z,42.83
2018-03-28T09:31:43.536Z,43.07
2018-03-28T09:34:10.509Z,40.93
2018-03-28T09:36:36.755Z,45.00
2018-03-28T09:39:03.984Z,38.97
2018-03-28T09:41:30.153Z,46.10
2018-03-28T09:43:59.539Z,43.07
2018-03-28T09:46:25.707Z,42.53
2018-03-28T09:48:53.605Z,46.97
2018-03-28T09:51:19.825Z,43.13
2018-03-28T09:53:46.798Z,46.63
2018-03-28T09:56:13.045Z,41.07
2018-03-28T09:58:39.345Z,42.83
2018-03-28T10:01:07.411Z,45.97
2018-03-28T10:03:33.641Z,57.40
2018-03-28T10:05:59.842Z,51.27
2018-03-28T10:08:26.684Z,44.93
2018-03-28T10:10:52.332Z,47.77
2018-03-28T10:13:18.620Z,43.07
2018-03-28T10:15:44.808Z,37.43
2018-03-28T10:18:11.051Z,35.10
2018-03-28T10:20:37.230Z,35.90
2018-03-28T10:23:04.168Z,32.53
2018-03-28T10:25:31.145Z,39.97
2018-03-28T10:27:57.368Z,34.30
2018-03-28T10:30:25.134Z,36.20
2018-03-28T10:32:51.388Z,36.17
2018-03-28T10:35:17.658Z,33.73
2018-03-28T10:37:44.593Z,36.67
2018-03-28T10:40:10.861Z,30.50
2018-03-28T10:42:37.076Z,33.70
2018-03-28T10:45:03.542Z,33.70
2018-03-28T10:47:29.770Z,33.23
2018-03-28T10:49:57.628Z,40.37
2018-03-28T10:52:23.882Z,33.67
2018-03-28T10:55:05.084Z,38.77
2018-03-28T10:57:31.313Z,35.20
2018-03-28T10:59:57.621Z,32.40
2018-03-28T11:02:23.812Z,39.40
2018-03-28T11:04:50.047Z,38.17
2018-03-28T11:07:16.313Z,42.13
2018-03-28T11:09:42.513Z,37.67
2018-03-28T11:12:09.733Z,37.80
2018-03-28T11:14:36.004Z,36.83
2018-03-28T11:17:02.353Z,39.27
2018-03-28T11:19:28.510Z,34.73
2018-03-28T11:21:55.526Z,35.00
2018-03-28T11:24:21.718Z,39.97
2018-03-28T11:26:47.985Z,41.57
2018-03-28T11:29:14.206Z,41.63
2018-03-28T11:31:41.201Z,38.13
2018-03-28T11:34:07.441Z,38.00
2018-03-28T11:36:33.678Z,40.80
2018-03-28T11:38:59.907Z,42.30
2018-03-28T11:41:30.711Z,40.60
2018-03-28T11:44:04.666Z,46.87
2018-03-28T11:46:39.389Z,41.90
2018-03-28T11:49:06.468Z,39.67
2018-03-28T11:51:32.841Z,41.07
2018-03-28T11:53:59.057Z,42.33
2018-03-28T11:56:26.964Z,41.70
2018-03-28T11:58:53.215Z,41.13
2018-03-28T12:01:20.858Z,44.20
2018-03-28T12:03:48.286Z,45.70
2018-03-28T12:06:14.478Z,45.83
2018-03-28T12:08:42.194Z,49.80
2018-03-28T12:11:08.392Z,39.27
2018-03-28T12:13:35.384Z,43.50
2018-03-28T12:16:01.652Z,46.53
2018-03-28T12:18:27.856Z,47.73
2018-03-28T12:20:54.107Z,45.97
2018-03-28T12:23:25.405Z,49.87
2018-03-28T12:25:51.571Z,45.30
2018-03-28T12:28:17.758Z,45.43
2018-03-28T12:30:43.978Z,47.27
2018-03-28T12:33:11.877Z,55.03
2018-03-28T12:35:38.101Z,52.27
2018-03-28T12:38:05.949Z,55.70
2018-03-28T12:40:32.181Z,47.50
2018-03-28T12:42:58.360Z,55.00
2018-03-28T12:45:25.370Z,51.23
2018-03-28T12:47:51.549Z,50.67
2018-03-28T12:50:19.693Z,53.73
2018-03-28T12:52:46.625Z,52.00
2018-03-28T12:55:12.861Z,50.80
2018-03-28T12:57:39.102Z,53.97
2018-03-28T13:00:05.357Z,58.57
2018-03-28T13:02:31.578Z,48.37
2018-03-28T13:04:59.329Z,50.63
2018-03-28T13:07:26.845Z,48.77
2018-03-28T13:09:53.084Z,40.73
2018-03-28T13:12:19.302Z,34.23
2018-03-28T13:14:45.557Z,38.70
2018-03-28T13:17:11.789Z,47.00
2018-03-28T13:19:38.066Z,43.50
2018-03-28T13:22:04.269Z,46.23
2018-03-28T13:24:34.301Z,38.03
2018-03-28T13:27:00.799Z,37.03
2018-03-28T13:29:27.065Z,32.40
2018-03-28T13:31:53.565Z,35.30
2018-03-28T13:34:19.802Z,41.20
2018-03-28T13:36:46.788Z,31.50
2018-03-28T13:39:12.985Z,37.23
2018-03-28T13:41:39.964Z,36.97
2018-03-28T13:44:06.197Z,35.23
2018-03-28T13:46:32.451Z,38.80
2018-03-28T13:48:58.666Z,37.00
2018-03-28T13:51:24.952Z,38.77
2018-03-28T13:53:51.157Z,38.80
2018-03-28T13:56:17.316Z,38.30
2018-03-28T13:58:43.537Z,41.13
2018-03-28T14:01:09.698Z,40.20
2018-03-28T14:03:35.927Z,41.37
2018-03-28T14:06:05.228Z,42.03
2018-03-28T14:08:31.374Z,40.53
2018-03-28T14:10:58.389Z,43.40
2018-03-28T14:13:24.667Z,45.90
2018-03-28T14:15:52.564Z,42.80
2018-03-28T14:18:18.839Z,33.50
2018-03-28T14:20:45.058Z,40.83
2018-03-28T14:23:11.328Z,48.40
2018-03-28T14:25:38.263Z,43.37
2018-03-28T14:28:04.530Z,42.80
2018-03-28T14:30:30.750Z,47.63
2018-03-28T14:32:57.038Z,42.50
2018-03-28T14:35:23.231Z,43.60
2018-03-28T14:37:49.515Z,45.43
2018-03-28T14:40:16.446Z,50.10
2018-03-28T14:42:54.585Z,48.30
2018-03-28T14:45:10.150Z,47.87
2018-03-28T14:47:38.341Z,45.63
2018-03-28T14:50:04.613Z,48.27
2018-03-28T14:52:30.878Z,48.80
2018-03-28T14:54:57.776Z,47.20
2018-03-28T14:57:24.043Z,48.77
2018-03-28T14:59:50.264Z,45.03
2018-03-28T15:02:16.548Z,46.10
2018-03-28T15:04:42.740Z,47.23
2018-03-28T15:07:09.729Z,45.23
2018-03-28T15:09:36.198Z,49.53
2018-03-28T15:12:02.398Z,42.03
2018-03-28T15:14:28.617Z,44.67
2018-03-28T15:16:54.793Z,54.27
2018-03-28T15:19:21.062Z,48.13
2018-03-28T15:21:47.285Z,52.73
2018-03-28T15:24:15.015Z,47.87
2018-03-28T15:26:41.182Z,52.20
2018-03-28T15:29:09.435Z,53.03
2018-03-28T15:31:37.562Z,46.53
2018-03-28T15:34:05.638Z,41.13
2018-03-28T15:36:31.880Z,48.67
2018-03-28T15:38:59.779Z,43.30
2018-03-28T15:41:26.648Z,44.53
2018-03-28T15:43:54.077Z,48.17
2018-03-28T15:46:20.957Z,49.20
2018-03-28T15:48:47.929Z,46.17
2018-03-28T15:51:14.113Z,52.47
2018-03-28T15:53:40.277Z,49.27
2018-03-28T15:56:07.169Z,50.07
2018-03-28T15:58:33.315Z,50.70
2018-03-28T16:00:59.501Z,53.53
2018-03-28T16:03:26.445Z,51.70
2018-03-28T16:05:54.989Z,52.43
2018-03-28T16:08:21.221Z,47.40
2018-03-28T16:10:49.346Z,52.67
2018-03-28T16:13:16.281Z,55.20
2018-03-28T16:15:43.292Z,45.37
2018-03-28T16:18:10.193Z,47.27
2018-03-28T16:20:36.361Z,45.63
2018-03-28T16:23:02.593Z,47.73
2018-03-28T16:25:28.835Z,51.13
2018-03-28T16:27:55.080Z,47.43
2018-03-28T16:30:22.032Z,52.37
2018-03-28T16:32:48.981Z,39.13
2018-03-28T16:35:15.973Z,50.03
2018-03-28T16:37:42.180Z,54.30
2018-03-28T16:40:08.321Z,48.17
2018-03-28T16:42:37.637Z,53.17
2018-03-28T16:45:03.905Z,45.63
2018-03-28T16:47:31.998Z,48.53
2018-03-28T16:49:58.263Z,52.27
2018-03-28T16:52:25.168Z,51.20
2018-03-28T16:54:51.393Z,51.50
2018-03-28T16:57:17.619Z,42.20
2018-03-28T16:59:43.780Z,48.73
2018-03-28T17:02:09.953Z,51.97
2018-03-28T17:04:36.884Z,47.33
2018-03-28T17:07:03.082Z,43.00
2018-03-28T17:09:29.273Z,51.60
2018-03-28T17:11:55.529Z,47.17
2018-03-28T17:14:21.748Z,47.60
2018-03-28T17:16:49.222Z,46.13
2018-03-28T17:19:15.363Z,47.20
2018-03-28T17:21:45.416Z,46.90
2018-03-28T17:24:12.365Z,46.50
2018-03-28T17:26:39.317Z,37.50
2018-03-28T17:29:08.210Z,41.40
2018-03-28T17:31:34.832Z,46.90
2018-03-28T17:34:02.225Z,38.17
2018-03-28T17:36:28.719Z,42.90
2018-03-28T17:38:55.670Z,41.83
2018-03-28T17:41:22.883Z,40.80
2018-03-28T17:43:49.481Z,44.33
2018-03-28T17:46:16.174Z,42.03
2018-03-28T17:48:42.925Z,47.53
2018-03-28T17:51:10.171Z,40.23
2018-03-28T17:53:37.478Z,39.63
2018-03-28T17:56:04.305Z,40.77
2018-03-28T17:58:31.873Z,38.23
2018-03-28T18:00:58.241Z,37.83
2018-03-28T18:03:24.811Z,38.67
2018-03-28T18:05:52.152Z,38.30
2018-03-28T18:08:19.617Z,46.27
2018-03-28T18:10:46.849Z,39.63
2018-03-28T18:13:15.310Z,48.23
2018-03-28T18:15:42.039Z,49.03
2018-03-28T18:18:08.932Z,48.87
2018-03-28T18:20:36.353Z,41.23
2018-03-28T18:23:03.725Z,35.13
2018-03-28T18:25:30.237Z,39.20
2018-03-28T18:27:56.469Z,41.30
2018-03-28T18:30:23.392Z,36.87
2018-03-28T18:32:51.942Z,38.73
2018-03-28T18:35:19.480Z,36.27
2018-03-28T18:37:47.259Z,43.37
2018-03-28T18:40:13.454Z,33.07
2018-03-28T18:42:39.586Z,38.47
2018-03-28T18:45:06.995Z,46.23
2018-03-28T18:47:33.141Z,47.20
2018-03-28T18:50:01.304Z,39.30
2018-03-28T18:52:27.433Z,37.80
2018-03-28T18:54:53.693Z,37.30
2018-03-28T18:57:19.851Z,33.17
2018-03-28T18:59:46.789Z,40.10
2018-03-28T19:02:12.938Z,36.10
2018-03-28T19:04:39.814Z,40.60
2018-03-28T19:07:05.976Z,38.57
2018-03-28T19:09:32.097Z,41.60
2018-03-28T19:11:59.700Z,35.50
2018-03-28T19:14:25.900Z,42.73
2018-03-28T19:16:52.062Z,41.53
2018-03-28T19:19:18.197Z,40.13
2018-03-28T19:21:45.496Z,38.60
2018-03-28T19:24:11.633Z,39.53
2018-03-28T19:26:37.792Z,38.90
2018-03-28T19:29:03.948Z,40.63
2018-03-28T19:31:31.953Z,39.80
2018-03-28T19:33:58.873Z,33.90
2018-03-28T19:36:25.073Z,32.30
2018-03-28T19:38:51.239Z,42.27
2018-03-28T19:41:17.404Z,39.47
2018-03-28T19:43:44.326Z,41.57
2018-03-28T19:46:10.477Z,46.50
2018-03-28T19:48:36.613Z,38.20
2018-03-28T19:51:02.810Z,38.00
2018-03-28T19:53:29.690Z,42.07
2018-03-28T19:55:55.862Z,41.03
2018-03-28T19:58:22.025Z,39.57
2018-03-28T20:00:48.904Z,36.60
2018-03-28T20:03:15.062Z,38.50
2018-03-28T20:05:41.222Z,39.37
2018-03-28T20:08:09.809Z,43.97
2018-03-28T20:10:35.964Z,40.00
2018-03-28T20:13:02.117Z,44.83
2018-03-28T20:15:28.263Z,42.17
2018-03-28T20:17:54.417Z,36.77
2018-03-28T20:20:20.558Z,41.50
2018-03-28T20:22:46.736Z,40.50
2018-03-28T20:25:12.874Z,44.00
2018-03-28T20:27:39.770Z,44.70
2018-03-28T20:30:05.921Z,41.07
2018-03-28T20:32:32.122Z,41.57
2018-03-28T20:34:58.253Z,37.30
2018-03-28T20:37:24.640Z,43.73
2018-03-28T20:39:51.521Z,50.23
2018-03-28T20:42:19.545Z,40.83
2018-03-28T20:44:46.422Z,41.73
2018-03-28T20:47:12.558Z,50.43
2018-03-28T20:49:40.601Z,45.73
2018-03-28T20:52:07.469Z,43.17
2018-03-28T20:54:33.620Z,52.63
2018-03-28T20:56:59.758Z,54.23
2018-03-28T20:59:26.721Z,52.03
2018-03-28T21:01:53.608Z,55.87
2018-03-28T21:04:19.756Z,40.30
2018-03-28T21:06:45.893Z,53.90
2018-03-28T21:09:12.061Z,51.77
2018-03-28T21:11:38.966Z,48.90
2018-03-28T21:14:05.166Z,50.47
2018-03-28T21:16:31.350Z,53.00
2018-03-28T21:18:58.249Z,52.37
2018-03-28T21:21:24.412Z,62.13
2018-03-28T21:23:51.916Z,53.70
2018-03-28T21:26:18.115Z,50.07
2018-03-28T21:28:46.273Z,44.27
2018-03-28T21:31:12.409Z,52.60
2018-03-28T21:33:39.302Z,58.73
2018-03-28T21:36:05.496Z,56.40
2018-03-28T21:38:31.649Z,56.77
2018-03-28T21:40:57.796Z,51.97
2018-03-28T21:43:24.673Z,51.00
2018-03-28T21:45:51.634Z,53.77
2018-03-28T21:48:17.842Z,49.37
2018-03-28T21:50:44.001Z,46.00
2018-03-28T21:53:10.140Z,46.70
2018-03-28T21:55:36.305Z,49.67
2018-03-28T21:58:02.456Z,43.57
2018-03-28T22:00:29.360Z,46.20
2018-03-28T22:02:55.511Z,43.00
2018-03-28T22:05:21.664Z,50.50
2018-03-28T22:07:47.810Z,50.03
2018-03-28T22:10:15.237Z,44.17
2018-03-28T22:12:42.114Z,36.80
2018-03-28T22:15:08.273Z,42.23
2018-03-28T22:17:34.482Z,40.47
2018-03-28T22:20:01.807Z,42.97
2018-03-28T22:22:27.970Z,39.17
2018-03-28T22:24:54.101Z,35.60
2018-03-28T22:27:20.257Z,36.80
2018-03-28T22:29:46.389Z,40.37
2018-03-28T22:32:15.249Z,41.00
2018-03-28T22:34:41.396Z,42.47
2018-03-28T22:37:07.544Z,36.13
2018-03-28T22:39:34.410Z,36.80
2018-03-28T22:42:15.518Z,38.33
2018-03-28T22:44:41.657Z,33.80
2018-03-28T22:47:09.465Z,36.37
2018-03-28T22:49:35.596Z,30.60
2018-03-28T22:52:01.749Z,38.93
2018-03-28T22:54:27.877Z,39.10
2018-03-28T22:56:54.037Z,41.47
2018-03-28T22:59:20.164Z,39.67
2018-03-28T23:01:46.329Z,39.73
2018-03-28T23:04:12.462Z,40.63
2018-03-28T23:06:38.692Z,40.23
2018-03-28T23:09:04.866Z,41.67
2018-03-28T23:11:31.390Z,35.70
2018-03-28T23:13:58.679Z,38.27
2018-03-28T23:16:25.149Z,35.50
2018-03-28T23:18:51.570Z,41.03
2018-03-28T23:21:17.948Z,39.23
2018-03-28T23:23:46.046Z,41.47
2018-03-28T23:26:13.692Z,43.53
2018-03-28T23:28:40.685Z,44.70
2018-03-28T23:31:07.128Z,48.33
2018-03-28T23:33:33.362Z,51.40
2018-03-28T23:35:59.564Z,41.87
2018-03-28T23:38:28.435Z,40.47
2018-03-28T23:40:55.347Z,41.40
2018-03-28T23:43:21.626Z,45.90
2018-03-28T23:45:47.829Z,41.57
2018-03-28T23:48:14.818Z,44.47
2018-03-28T23:50:41.024Z,50.57
2018-03-28T23:53:07.202Z,36.73
2018-03-28T23:55:33.413Z,35.67
2018-03-28T23:57:59.641Z,39.07
